createdAt,value
2022-11-24T00:01:13.448Z,76498.66
2022-11-24T00:03:41.356Z,76496.53
2022-11-24T00:06:10.979Z,76498.66
2022-11-24T00:08:41.428Z,76498.66
2022-11-24T00:11:11.248Z,76505.00
2022-11-24T00:13:40.196Z,76515.59
2022-11-24T00:16:10.235Z,76519.81
2022-11-24T00:18:38.500Z,76519.81
2022-11-24T00:21:06.713Z,76513.47
2022-11-24T00:23:35.002Z,76507.13
2022-11-24T00:26:09.836Z,76507.13
2022-11-24T00:28:39.011Z,76507.13
2022-11-24T00:31:17.539Z,76500.78
2022-11-24T00:33:46.206Z,76502.88
2022-11-24T00:36:14.129Z,76498.66
2022-11-24T00:38:42.048Z,76505.00
2022-11-24T00:41:11.475Z,76509.25
2022-11-24T00:43:39.716Z,76513.47
2022-11-24T00:46:07.916Z,76519.81
2022-11-24T00:48:36.169Z,76519.81
2022-11-24T00:51:06.187Z,76513.47
2022-11-24T00:53:34.027Z,76515.59
2022-11-24T00:56:04.013Z,76502.88
2022-11-24T00:58:35.137Z,76511.34
2022-11-24T01:01:04.871Z,76515.59
2022-11-24T01:03:33.522Z,76517.72
2022-11-24T01:06:04.989Z,76511.34
2022-11-24T01:08:33.113Z,76528.28
2022-11-24T01:11:12.164Z,76530.41
2022-11-24T01:13:42.107Z,76524.06
2022-11-24T01:16:15.690Z,76532.53
2022-11-24T01:18:43.658Z,76528.28
2022-11-24T01:21:11.465Z,76524.06
2022-11-24T01:23:39.873Z,76519.81
2022-11-24T01:26:08.526Z,76519.81
2022-11-24T01:28:38.560Z,76534.66
2022-11-24T01:31:12.022Z,76524.06
2022-11-24T01:33:40.039Z,76524.06
2022-11-24T01:36:08.117Z,76526.19
2022-11-24T01:38:36.084Z,76528.28
2022-11-24T01:41:05.555Z,76538.88
2022-11-24T01:43:33.828Z,76534.66
2022-11-24T01:46:05.889Z,76534.66
2022-11-24T01:48:38.756Z,76541.00
2022-11-24T01:51:09.704Z,76547.34
2022-11-24T01:53:37.829Z,76555.81
2022-11-24T01:56:06.255Z,76557.94
2022-11-24T01:58:34.813Z,76551.56
2022-11-24T02:01:02.764Z,76557.94
2022-11-24T02:03:33.828Z,76551.56
2022-11-24T02:06:04.877Z,76551.56
2022-11-24T02:08:36.317Z,76553.69
2022-11-24T02:11:06.081Z,76551.56
2022-11-24T02:13:35.686Z,76553.69
2022-11-24T02:16:03.887Z,76564.28
2022-11-24T02:18:31.720Z,76566.41
2022-11-24T02:21:00.049Z,76553.69
2022-11-24T02:23:38.924Z,76564.28
2022-11-24T02:26:14.270Z,76579.09
2022-11-24T02:28:43.476Z,76572.75
2022-11-24T02:31:11.489Z,76564.28
2022-11-24T02:33:39.402Z,76568.50
2022-11-24T02:36:07.964Z,76570.63
2022-11-24T02:38:37.057Z,76581.22
2022-11-24T02:41:07.354Z,76579.09
2022-11-24T02:43:38.660Z,76576.97
2022-11-24T02:46:08.469Z,76581.22
2022-11-24T02:48:36.354Z,76587.56
2022-11-24T02:51:04.402Z,76587.56
2022-11-24T02:53:32.288Z,76583.34
2022-11-24T02:56:00.110Z,76581.22
2022-11-24T02:58:28.372Z,76587.56
2022-11-24T03:00:57.290Z,76591.78
2022-11-24T03:03:27.148Z,76591.78
2022-11-24T03:05:55.089Z,76579.09
2022-11-24T03:08:22.865Z,76583.34
2022-11-24T03:10:50.563Z,76589.69
2022-11-24T03:13:18.637Z,76579.09
2022-11-24T03:15:46.416Z,76587.56
2022-11-24T03:18:14.693Z,76587.56
2022-11-24T03:20:44.228Z,76581.22
2022-11-24T03:23:13.215Z,76583.34
2022-11-24T03:25:40.920Z,76591.78
2022-11-24T03:28:08.685Z,76593.91
2022-11-24T03:30:37.071Z,76604.50
2022-11-24T03:33:05.164Z,76598.16
2022-11-24T03:35:32.870Z,76598.16
2022-11-24T03:38:01.969Z,76604.50
2022-11-24T03:40:30.181Z,76602.38
2022-11-24T03:42:57.949Z,76606.63
2022-11-24T03:48:13.507Z,76606.63
2022-11-24T03:50:41.236Z,76629.91
2022-11-24T03:53:10.826Z,76623.56
2022-11-24T03:55:38.624Z,76621.44
2022-11-24T03:58:06.349Z,76625.66
2022-11-24T04:00:34.404Z,76625.66
2022-11-24T04:03:02.238Z,76621.44
2022-11-24T04:05:30.033Z,76617.19
2022-11-24T04:07:58.532Z,76621.44
2022-11-24T04:10:27.760Z,76629.91
2022-11-24T04:12:54.479Z,76638.38
2022-11-24T04:15:22.789Z,76629.91
2022-11-24T04:17:51.661Z,76638.38
2022-11-24T04:20:20.094Z,76632.00
2022-11-24T04:22:47.861Z,76640.47
2022-11-24T04:25:17.478Z,76638.38
2022-11-24T04:27:47.104Z,76638.38
2022-11-24T04:30:14.962Z,76640.47
2022-11-24T04:32:44.473Z,76629.91
2022-11-24T04:35:12.626Z,76634.13
2022-11-24T04:37:40.761Z,76629.91
2022-11-24T04:40:10.088Z,76634.13
2022-11-24T04:42:37.949Z,76642.59
2022-11-24T04:45:08.684Z,76648.94
2022-11-24T04:47:36.430Z,76644.72
2022-11-24T04:50:06.102Z,76644.72
2022-11-24T04:52:34.197Z,76661.66
2022-11-24T04:55:02.144Z,76663.78
2022-11-24T04:57:29.880Z,76668.00
2022-11-24T04:59:57.640Z,76668.00
2022-11-24T05:02:26.843Z,76657.41
2022-11-24T05:04:54.633Z,76657.41
2022-11-24T05:07:22.624Z,76668.00
2022-11-24T05:10:08.117Z,76659.53
2022-11-24T05:12:35.871Z,76661.66
2022-11-24T05:15:06.507Z,76657.41
2022-11-24T05:17:37.639Z,76659.53
2022-11-24T05:20:06.915Z,76657.41
2022-11-24T05:22:34.670Z,76672.22
2022-11-24T05:25:02.974Z,76680.69
2022-11-24T05:27:30.661Z,76680.69
2022-11-24T05:29:58.761Z,76693.41
2022-11-24T05:32:26.570Z,76693.41
2022-11-24T05:34:56.743Z,76687.06
2022-11-24T05:37:25.948Z,76684.94
2022-11-24T05:39:54.781Z,76680.69
2022-11-24T05:42:47.181Z,76680.69
2022-11-24T05:45:17.185Z,76684.94
2022-11-24T05:47:45.422Z,76676.47
2022-11-24T05:50:16.885Z,76682.81
2022-11-24T05:52:45.139Z,76682.81
2022-11-24T05:55:29.786Z,76680.69
2022-11-24T05:58:00.528Z,76682.81
2022-11-24T06:00:28.800Z,76676.47
2022-11-24T06:02:58.290Z,76687.06
2022-11-24T06:05:28.751Z,76687.06
2022-11-24T06:07:56.837Z,76684.94
2022-11-24T06:10:25.290Z,76674.34
2022-11-24T06:12:53.146Z,76672.22
2022-11-24T06:15:20.937Z,76676.47
2022-11-24T06:17:54.394Z,76674.34
2022-11-24T06:20:22.346Z,76661.66
2022-11-24T06:22:51.654Z,76668.00
2022-11-24T06:25:19.506Z,76668.00
2022-11-24T06:27:47.320Z,76670.13
2022-11-24T06:30:16.213Z,76670.13
2022-11-24T06:32:49.338Z,76674.34
2022-11-24T06:35:17.407Z,76670.13
2022-11-24T06:37:45.912Z,76676.47
2022-11-24T06:40:15.258Z,76678.59
2022-11-24T06:42:43.025Z,76678.59
2022-11-24T06:45:12.288Z,76676.47
2022-11-24T06:47:39.916Z,76672.22
2022-11-24T06:50:09.823Z,76668.00
2022-11-24T06:52:37.919Z,76672.22
2022-11-24T06:55:06.355Z,76674.34
2022-11-24T06:57:35.888Z,76663.78
2022-11-24T07:00:05.728Z,76657.41
2022-11-24T07:02:33.696Z,76657.41
2022-11-24T07:05:01.571Z,76659.53
2022-11-24T07:07:29.390Z,76655.31
2022-11-24T07:09:57.223Z,76648.94
2022-11-24T07:12:25.260Z,76655.31
2022-11-24T07:14:54.624Z,76659.53
2022-11-24T07:17:22.271Z,76663.78
2022-11-24T07:19:50.190Z,76668.00
2022-11-24T07:22:18.047Z,76665.88
2022-11-24T07:24:45.800Z,76661.66
2022-11-24T07:27:13.427Z,76670.13
2022-11-24T07:29:41.272Z,76659.53
2022-11-24T07:32:10.578Z,76659.53
2022-11-24T07:34:38.217Z,76646.84
2022-11-24T07:37:05.966Z,76638.38
2022-11-24T07:39:34.047Z,76638.38
2022-11-24T07:42:01.999Z,76642.59
2022-11-24T07:44:29.952Z,76646.84
2022-11-24T07:46:57.905Z,76638.38
2022-11-24T07:49:32.407Z,76621.44
2022-11-24T07:52:01.391Z,76627.78
2022-11-24T07:54:29.355Z,76617.19
2022-11-24T07:56:57.744Z,76621.44
2022-11-24T07:59:25.510Z,76627.78
2022-11-24T08:01:53.392Z,76646.84
2022-11-24T08:04:21.064Z,76646.84
2022-11-24T08:06:50.651Z,76640.47
2022-11-24T08:09:18.378Z,76634.13
2022-11-24T08:11:46.441Z,76632.00
2022-11-24T08:14:14.124Z,76638.38
2022-11-24T08:16:41.852Z,76625.66
2022-11-24T08:19:11.084Z,76625.66
2022-11-24T08:21:39.079Z,76625.66
2022-11-24T08:24:09.852Z,76629.91
2022-11-24T08:26:38.001Z,76642.59
2022-11-24T08:29:06.127Z,76640.47
2022-11-24T08:31:35.512Z,76629.91
2022-11-24T08:34:04.633Z,76623.56
2022-11-24T08:36:33.020Z,76625.66
2022-11-24T08:39:01.514Z,76625.66
2022-11-24T08:41:31.667Z,76623.56
2022-11-24T08:43:59.549Z,76627.78
2022-11-24T08:46:27.473Z,76610.84
2022-11-24T08:48:56.119Z,76625.66
2022-11-24T08:51:25.834Z,76627.78
2022-11-24T08:53:55.742Z,76621.44
2022-11-24T08:56:23.561Z,76625.66
2022-11-24T08:58:52.958Z,76615.09
2022-11-24T09:01:20.781Z,76621.44
2022-11-24T09:03:50.971Z,76619.31
2022-11-24T09:06:23.096Z,76625.66
2022-11-24T09:08:51.210Z,76625.66
2022-11-24T09:11:19.527Z,76642.59
2022-11-24T09:13:47.746Z,76629.91
2022-11-24T09:16:18.965Z,76625.66
2022-11-24T09:18:46.984Z,76629.91
2022-11-24T09:21:16.076Z,76632.00
2022-11-24T09:23:44.389Z,76646.84
2022-11-24T09:26:13.686Z,76644.72
2022-11-24T09:28:42.014Z,76636.25
2022-11-24T09:31:12.130Z,76634.13
2022-11-24T09:33:42.164Z,76629.91
2022-11-24T09:36:10.243Z,76632.00
2022-11-24T09:38:38.554Z,76629.91
2022-11-24T09:41:42.681Z,76642.59
2022-11-24T09:44:26.378Z,76632.00
2022-11-24T09:46:59.849Z,76625.66
2022-11-24T09:49:34.471Z,76642.59
2022-11-24T09:52:03.566Z,76646.84
2022-11-24T09:54:32.242Z,76636.25
2022-11-24T09:57:02.174Z,76625.66
2022-11-24T09:59:30.205Z,76623.56
2022-11-24T10:01:57.980Z,76617.19
2022-11-24T10:04:28.279Z,76619.31
2022-11-24T10:07:02.354Z,76627.78
2022-11-24T10:09:51.687Z,76623.56
2022-11-24T10:12:31.850Z,76642.59
2022-11-24T10:15:32.482Z,76632.00
2022-11-24T10:18:16.780Z,76634.13
2022-11-24T10:20:53.639Z,76629.91
2022-11-24T10:23:39.767Z,76634.13
2022-11-24T10:26:10.066Z,76638.38
2022-11-24T10:28:42.225Z,76646.84
2022-11-24T10:31:20.010Z,76661.66
2022-11-24T10:33:48.737Z,76651.06
2022-11-24T10:36:21.831Z,76642.59
2022-11-24T10:38:53.905Z,76644.72
2022-11-24T10:41:25.560Z,76657.41
2022-11-24T10:43:53.631Z,76646.84
2022-11-24T10:46:26.343Z,76646.84
2022-11-24T10:48:56.127Z,76644.72
2022-11-24T10:51:40.155Z,76659.53
2022-11-24T10:54:15.560Z,76672.22
2022-11-24T10:56:44.456Z,76672.22
2022-11-24T10:59:26.244Z,76680.69
2022-11-24T11:01:54.817Z,76684.94
2022-11-24T11:04:26.242Z,76691.28
2022-11-24T11:06:54.096Z,76684.94
2022-11-24T11:09:23.875Z,76674.34
2022-11-24T11:11:54.371Z,76676.47
2022-11-24T11:14:32.897Z,76661.66
2022-11-24T11:17:01.026Z,76672.22
2022-11-24T11:19:54.263Z,76674.34
2022-11-24T11:22:25.681Z,76676.47
2022-11-24T11:25:07.151Z,76676.47
2022-11-24T11:27:35.113Z,76674.34
2022-11-24T11:36:12.052Z,76663.78
2022-11-24T11:38:41.020Z,76668.00
2022-11-24T11:41:15.572Z,76668.00
2022-11-24T11:43:45.914Z,76668.00
2022-11-24T11:46:15.546Z,76670.13
2022-11-24T11:48:47.027Z,76684.94
2022-11-24T11:51:28.036Z,76682.81
2022-11-24T11:53:59.753Z,76695.53
2022-11-24T11:56:32.497Z,76697.63
2022-11-24T11:59:14.918Z,76689.16
2022-11-24T12:02:03.441Z,76695.53
2022-11-24T12:04:42.156Z,76693.41
2022-11-24T12:07:25.883Z,76697.63
2022-11-24T12:10:01.875Z,76701.88
2022-11-24T12:12:45.804Z,76716.69
2022-11-24T12:15:17.844Z,76712.47
2022-11-24T12:17:52.597Z,76720.94
2022-11-24T12:20:43.184Z,76710.34
2022-11-24T12:23:20.187Z,76708.22
2022-11-24T12:25:52.616Z,76708.22
2022-11-24T12:28:26.125Z,76714.56
2022-11-24T12:31:02.103Z,76716.69
2022-11-24T12:33:38.604Z,76708.22
2022-11-24T12:36:14.300Z,76712.47
2022-11-24T12:38:50.489Z,76714.56
2022-11-24T12:41:41.659Z,76723.03
2022-11-24T12:44:23.356Z,76727.28
2022-11-24T12:47:00.581Z,76748.44
2022-11-24T12:49:35.470Z,76748.44
2022-11-24T12:52:06.703Z,76744.22
2022-11-24T12:54:40.183Z,76744.22
2022-11-24T12:57:12.189Z,76742.09
2022-11-24T12:59:46.755Z,76742.09
2022-11-24T13:02:24.516Z,76739.97
2022-11-24T13:04:56.750Z,76735.75
2022-11-24T13:07:35.844Z,76735.75
2022-11-24T13:13:20.671Z,76737.84
2022-11-24T13:16:35.752Z,76737.84
2022-11-24T13:19:17.434Z,76735.75
2022-11-24T13:22:01.614Z,76739.97
2022-11-24T13:24:32.165Z,76735.75
2022-11-24T13:27:38.606Z,76748.44
2022-11-24T13:30:52.045Z,76746.31
2022-11-24T13:33:37.950Z,76739.97
2022-11-24T13:36:31.354Z,76750.56
2022-11-24T13:38:59.906Z,76759.03
2022-11-24T13:42:07.634Z,76756.91
2022-11-24T13:44:49.020Z,76765.38
2022-11-24T13:47:41.374Z,76767.50
2022-11-24T13:50:25.454Z,76767.50
2022-11-24T13:53:01.020Z,76765.38
2022-11-24T13:55:35.009Z,76761.16
2022-11-24T13:58:31.249Z,76769.63
2022-11-24T14:01:19.176Z,76763.25
2022-11-24T14:07:07.039Z,76763.25
2022-11-24T14:09:36.851Z,76778.06
2022-11-24T14:12:09.247Z,76775.97
2022-11-24T14:14:36.981Z,76771.72
2022-11-24T14:17:09.929Z,76786.53
2022-11-24T14:19:38.534Z,76803.47
2022-11-24T14:22:07.908Z,76790.78
2022-11-24T14:24:41.217Z,76805.59
2022-11-24T14:27:15.096Z,76811.94
2022-11-24T14:29:54.428Z,76809.84
2022-11-24T14:32:27.438Z,76809.84
2022-11-24T14:34:55.605Z,76820.41
2022-11-24T14:37:25.145Z,76820.41
2022-11-24T14:39:52.929Z,76816.19
2022-11-24T14:42:23.691Z,76809.84
2022-11-24T14:44:54.250Z,76807.72
2022-11-24T14:47:30.939Z,76807.72
2022-11-24T14:50:09.258Z,76807.72
2022-11-24T14:52:45.278Z,76809.84
2022-11-24T14:55:26.417Z,76816.19
2022-11-24T14:57:54.709Z,76811.94
2022-11-24T15:00:28.557Z,76816.19
2022-11-24T15:02:57.876Z,76811.94
2022-11-24T15:05:26.531Z,76816.19
2022-11-24T15:08:04.152Z,76820.41
2022-11-24T15:10:34.481Z,76824.66
2022-11-24T15:13:09.909Z,76831.00
2022-11-24T15:15:46.456Z,76837.34
2022-11-24T15:18:26.566Z,76841.59
2022-11-24T15:21:04.168Z,76843.69
2022-11-24T15:23:35.361Z,76847.94
2022-11-24T15:26:30.243Z,76862.75
2022-11-24T15:29:00.257Z,76867.00
2022-11-24T15:31:27.960Z,76869.09
2022-11-24T15:34:17.179Z,76873.34
2022-11-24T15:36:44.856Z,76871.22
2022-11-24T15:39:14.274Z,76875.47
2022-11-24T15:41:42.141Z,76873.34
2022-11-24T15:44:10.781Z,76873.34
2022-11-24T15:46:39.517Z,76879.69
2022-11-24T15:49:07.978Z,76883.94
2022-11-24T15:51:36.758Z,76875.47
2022-11-24T15:54:07.623Z,76873.34
2022-11-24T15:56:37.693Z,76873.34
2022-11-24T15:59:05.696Z,76862.75
2022-11-24T16:01:42.962Z,76873.34
2022-11-24T16:04:13.293Z,76867.00
2022-11-24T16:06:41.098Z,76873.34
2022-11-24T16:09:14.271Z,76871.22
2022-11-24T16:11:44.106Z,76881.81
2022-11-24T16:14:11.791Z,76879.69
2022-11-24T16:16:40.966Z,76881.81
2022-11-24T16:19:09.925Z,76883.94
2022-11-24T16:21:37.538Z,76883.94
2022-11-24T16:24:06.343Z,76892.41
2022-11-24T16:26:33.992Z,76888.16
2022-11-24T16:29:02.989Z,76907.22
2022-11-24T16:31:30.943Z,76900.88
2022-11-24T16:33:58.832Z,76905.09
2022-11-24T16:36:26.717Z,76913.56
2022-11-24T16:38:54.408Z,76907.22
2022-11-24T16:41:23.130Z,76902.97
2022-11-24T16:43:51.096Z,76911.44
2022-11-24T16:46:25.655Z,76915.69
2022-11-24T16:48:55.106Z,76913.56
2022-11-24T16:51:26.149Z,76928.38
2022-11-24T16:53:58.966Z,76934.72
2022-11-24T16:56:28.154Z,76945.31
2022-11-24T16:59:00.642Z,76943.19
2022-11-24T17:01:31.626Z,76938.97
2022-11-24T17:03:59.578Z,76955.91
2022-11-24T17:06:27.645Z,76945.31
2022-11-24T17:08:58.217Z,76947.44
2022-11-24T17:11:27.760Z,76962.25
2022-11-24T17:13:57.134Z,76955.91
2022-11-24T17:16:26.096Z,76960.13
2022-11-24T17:18:55.605Z,76951.66
2022-11-24T17:21:25.047Z,76951.66
2022-11-24T17:23:54.836Z,76955.91
2022-11-24T17:26:22.562Z,76949.56
2022-11-24T17:28:50.440Z,76958.03
2022-11-24T17:31:21.942Z,76938.97
2022-11-24T17:33:50.300Z,76945.31
2022-11-24T17:36:19.554Z,76951.66
2022-11-24T17:38:49.933Z,76960.13
2022-11-24T17:41:17.676Z,76953.78
2022-11-24T17:43:57.064Z,76951.66
2022-11-24T17:46:25.224Z,76951.66
2022-11-24T17:48:54.265Z,76960.13
2022-11-24T17:51:25.697Z,76972.84
2022-11-24T17:53:54.871Z,76983.44
2022-11-24T17:56:23.857Z,76989.78
2022-11-24T17:58:54.366Z,76981.31
2022-11-24T18:01:22.601Z,76998.25
2022-11-24T18:03:53.408Z,77000.34
2022-11-24T18:06:25.621Z,76998.25
2022-11-24T18:09:11.713Z,76989.78
2022-11-24T18:11:40.622Z,76998.25
2022-11-24T18:14:08.788Z,76998.25
2022-11-24T18:16:36.721Z,77002.47
2022-11-24T18:19:10.688Z,77006.72
2022-11-24T18:21:41.424Z,77013.06
2022-11-24T18:24:11.085Z,77015.19
2022-11-24T18:26:39.777Z,77019.41
2022-11-24T18:29:20.556Z,77017.28
2022-11-24T18:31:48.230Z,77015.19
2022-11-24T18:34:16.658Z,77019.41
2022-11-24T18:36:47.418Z,77025.75
2022-11-24T18:39:22.564Z,77036.34
2022-11-24T18:41:50.306Z,77034.22
2022-11-24T18:44:18.780Z,77025.75
2022-11-24T18:46:56.643Z,77032.13
2022-11-24T18:49:24.815Z,77034.22
2022-11-24T18:51:56.126Z,77027.88
2022-11-24T18:54:25.393Z,77036.34
2022-11-24T18:56:53.075Z,77025.75
2022-11-24T18:59:26.222Z,77027.88
2022-11-24T19:01:54.002Z,77027.88
2022-11-24T19:04:22.123Z,77030.00
2022-11-24T19:06:49.765Z,77034.22
2022-11-24T19:09:20.715Z,77040.59
2022-11-24T19:11:49.572Z,77040.59
2022-11-24T19:14:19.210Z,77051.16
2022-11-24T19:16:48.619Z,77046.94
2022-11-24T19:19:17.176Z,77044.81
2022-11-24T19:21:45.051Z,77049.06
2022-11-24T19:24:14.073Z,77053.28
2022-11-24T19:26:43.064Z,77042.69
2022-11-24T19:29:10.973Z,77055.41
2022-11-24T19:31:39.438Z,77063.88
2022-11-24T19:34:09.765Z,77061.75
2022-11-24T19:36:37.596Z,77055.41
2022-11-24T19:39:07.505Z,77061.75
2022-11-24T19:41:36.281Z,77072.34
2022-11-24T19:44:05.637Z,77076.56
2022-11-24T19:46:34.353Z,77072.34
2022-11-24T19:49:03.858Z,77070.22
2022-11-24T19:51:35.920Z,77076.56
2022-11-24T19:54:04.261Z,77078.69
2022-11-24T19:56:34.055Z,77068.09
2022-11-24T19:59:03.117Z,77061.75
2022-11-24T20:01:34.619Z,77051.16
2022-11-24T20:04:04.193Z,77051.16
2022-11-24T20:06:34.874Z,77053.28
2022-11-24T20:09:03.022Z,77053.28
2022-11-24T20:11:31.641Z,77053.28
2022-11-24T20:14:00.092Z,77061.75
2022-11-24T20:16:37.358Z,77059.63
2022-11-24T20:19:08.545Z,77061.75
2022-11-24T20:21:39.372Z,77074.47
2022-11-24T20:24:16.113Z,77089.28
2022-11-24T20:26:45.630Z,77095.63
2022-11-24T20:29:13.869Z,77085.03
2022-11-24T20:31:43.470Z,77095.63
2022-11-24T20:34:13.448Z,77089.28
2022-11-24T20:36:44.210Z,77087.16
2022-11-24T20:39:15.857Z,77089.28
2022-11-24T20:41:45.286Z,77080.81
2022-11-24T20:44:15.312Z,77076.56
2022-11-24T20:46:44.449Z,77078.69
2022-11-24T20:49:16.237Z,77082.94
2022-11-24T20:51:48.031Z,77085.03
2022-11-24T20:54:17.501Z,77080.81
2022-11-24T20:56:46.637Z,77085.03
2022-11-24T20:59:19.377Z,77078.69
2022-11-24T21:01:48.301Z,77074.47
2022-11-24T21:04:19.340Z,77076.56
2022-11-24T21:06:47.590Z,77074.47
2022-11-24T21:09:15.228Z,77078.69
2022-11-24T21:11:43.288Z,77076.56
2022-11-24T21:14:11.222Z,77070.22
2022-11-24T21:16:42.828Z,77066.00
2022-11-24T21:19:14.033Z,77066.00
2022-11-24T21:21:43.761Z,77074.47
2022-11-24T21:24:12.936Z,77078.69
2022-11-24T21:26:41.605Z,77078.69
2022-11-24T21:29:09.502Z,77078.69
2022-11-24T21:31:39.297Z,77091.41
2022-11-24T21:34:07.841Z,77093.50
2022-11-24T21:36:36.305Z,77080.81
2022-11-24T21:39:05.820Z,77080.81
2022-11-24T21:41:34.710Z,77080.81
2022-11-24T21:44:02.957Z,77080.81
2022-11-24T21:46:38.977Z,77078.69
2022-11-24T21:49:11.449Z,77076.56
2022-11-24T21:51:39.327Z,77076.56
2022-11-24T21:54:09.355Z,77076.56
2022-11-24T21:56:37.206Z,77072.34
2022-11-24T21:59:06.949Z,77076.56
2022-11-24T22:01:34.917Z,77091.41
2022-11-24T22:04:04.700Z,77089.28
2022-11-24T22:06:35.932Z,77072.34
2022-11-24T22:09:03.713Z,77076.56
2022-11-24T22:11:34.826Z,77074.47
2022-11-24T22:14:09.030Z,77068.09
2022-11-24T22:16:36.779Z,77078.69
2022-11-24T22:19:04.638Z,77072.34
2022-11-24T22:21:33.854Z,77080.81
2022-11-24T22:24:01.909Z,77087.16
2022-11-24T22:26:30.209Z,77087.16
2022-11-24T22:28:59.596Z,77095.63
2022-11-24T22:31:29.518Z,77104.09
2022-11-24T22:33:58.008Z,77101.97
2022-11-24T22:36:27.314Z,77110.44
2022-11-24T22:38:55.757Z,77121.03
2022-11-24T22:41:23.703Z,77125.28
2022-11-24T22:43:51.706Z,77133.72
2022-11-24T22:46:22.316Z,77133.72
2022-11-24T22:48:52.859Z,77129.50
2022-11-24T22:51:21.917Z,77121.03
2022-11-24T22:53:50.704Z,77146.44
2022-11-24T22:56:19.576Z,77142.19
2022-11-24T22:58:48.062Z,77140.09
2022-11-24T23:01:17.896Z,77133.72
2022-11-24T23:03:47.410Z,77129.50
2022-11-24T23:06:16.562Z,77129.50
2022-11-24T23:08:45.361Z,77142.19
2022-11-24T23:11:14.873Z,77129.50
2022-11-24T23:13:42.875Z,77121.03
2022-11-24T23:16:13.974Z,77121.03
2022-11-24T23:18:41.816Z,77125.28
2022-11-24T23:21:15.978Z,77129.50
2022-11-24T23:23:45.262Z,77129.50
2022-11-24T23:26:14.284Z,77131.63
2022-11-24T23:28:43.126Z,77125.28
2022-11-24T23:31:12.485Z,77121.03
2022-11-24T23:33:41.145Z,77123.16
2022-11-24T23:36:11.873Z,77123.16
2022-11-24T23:38:40.254Z,77114.69
2022-11-24T23:41:10.666Z,77116.81
2022-11-24T23:43:39.670Z,77121.03
2022-11-24T23:46:08.612Z,77118.91
2022-11-24T23:48:37.524Z,77112.56
2022-11-24T23:51:06.463Z,77110.44
2022-11-24T23:53:36.548Z,77125.28
2022-11-24T23:56:04.939Z,77110.44
2022-11-24T23:58:33.346Z,77116.81
